Time;durP1;ratioP1;P1;durP2;ratioP2;P2;SDS_P1;SDS_P2;PMS_P1;PMS_P2;Temp;Humidity;BMP_temperature;BMP_pressure;BME280_temperature;BME280_humidity;BME280_pressure;Samples;Min_cycle;Max_cycle;Signal;HPM_P1;HPM_P2
2024/01/23 00:00:27;;;;;;;19.10;3.05;;;;;;;4.96;79.58;100695.50;6268713;22;20011;-76
2024/01/23 00:02:54;;;;;;;23.23;4.03;;;;;;;4.94;79.60;100693.84;6268513;22;20071;-75
2024/01/23 00:05:21;;;;;;;15.23;3.55;;;;;;;4.90;79.04;100687.81;6242242;22;20123;-75
2024/01/23 00:07:48;;;;;;;16.73;3.50;;;;;;;5.02;79.02;100696.91;6267713;22;20024;-75
2024/01/23 00:10:15;;;;;;;19.00;2.88;;;;;;;5.20;77.68;100701.06;6267635;22;20068;-76
2024/01/23 00:12:42;;;;;;;19.27;2.65;;;;;;;5.17;77.61;100693.22;6267793;22;20373;-75
2024/01/23 00:15:09;;;;;;;14.13;2.55;;;;;;;5.05;78.95;100698.50;6268232;22;20081;-76
2024/01/23 00:17:35;;;;;;;15.20;3.25;;;;;;;5.03;78.77;100701.31;6266984;22;20089;-75
2024/01/23 00:20:04;;;;;;;14.55;2.65;;;;;;;5.08;78.55;100701.88;6268768;22;20024;-73
2024/01/23 00:22:31;;;;;;;16.20;2.70;;;;;;;5.09;78.03;100702.75;6241855;22;20035;-75
2024/01/23 00:24:58;;;;;;;13.65;3.38;;;;;;;5.22;77.33;100709.88;6269684;22;20023;-76
2024/01/23 00:27:25;;;;;;;16.60;3.35;;;;;;;5.25;77.53;100712.41;6268509;22;20035;-75
2024/01/23 00:29:52;;;;;;;14.35;2.80;;;;;;;5.25;76.77;100703.47;6267189;22;20028;-76
2024/01/23 00:32:19;;;;;;;11.50;2.47;;;;;;;5.31;76.22;100712.94;6269471;22;20015;-76
2024/01/23 00:34:45;;;;;;;13.85;2.97;;;;;;;5.38;75.98;100719.63;6270252;22;20026;-75
2024/01/23 00:37:12;;;;;;;17.73;2.92;;;;;;;5.41;76.16;100724.78;6263357;22;20042;-75
2024/01/23 00:39:39;;;;;;;11.60;2.13;;;;;;;5.51;75.06;100729.50;6267817;22;20039;-75
2024/01/23 00:42:07;;;;;;;13.80;2.40;;;;;;;5.48;76.82;100726.97;6267771;22;20027;-75
2024/01/23 00:44:34;;;;;;;8.52;2.35;;;;;;;5.41;77.19;100735.56;6269396;22;20020;-75
2024/01/23 00:47:01;;;;;;;12.55;2.33;;;;;;;5.33;77.61;100737.88;6268926;22;20512;-74
2024/01/23 00:49:28;;;;;;;14.88;2.28;;;;;;;5.44;78.50;100732.69;6268079;22;20020;-74
2024/01/23 00:51:54;;;;;;;10.43;2.25;;;;;;;5.41;79.23;100741.81;6266252;22;20023;-75
2024/01/23 00:54:22;;;;;;;12.65;2.65;;;;;;;5.44;78.56;100746.13;6266962;22;20026;-74
2024/01/23 00:56:49;;;;;;;12.63;2.35;;;;;;;5.38;79.54;100746.53;6266799;22;20091;-75
2024/01/23 00:59:16;;;;;;;14.30;2.40;;;;;;;5.40;78.83;100752.66;6268228;22;20031;-76
2024/01/23 01:01:43;;;;;;;12.55;2.13;;;;;;;5.33;79.32;100754.03;6266714;22;20438;-74
2024/01/23 01:04:10;;;;;;;11.52;2.25;;;;;;;5.24;80.04;100763.59;6242279;22;20482;-76
2024/01/23 01:06:36;;;;;;;12.85;2.22;;;;;;;5.07;81.98;100758.44;6265296;22;20019;-76
2024/01/23 01:09:03;;;;;;;8.98;2.00;;;;;;;5.15;82.50;100756.13;6240711;22;20146;-75
2024/01/23 01:11:30;;;;;;;11.98;2.53;;;;;;;5.03;83.34;100741.63;6267985;22;20027;-72
2024/01/23 01:13:57;;;;;;;13.00;2.20;;;;;;;4.89;83.74;100755.94;6269180;22;20020;-75
2024/01/23 01:16:24;;;;;;;13.00;2.53;;;;;;;4.86;84.15;100749.88;6269434;22;20065;-75
2024/01/23 01:18:51;;;;;;;17.02;2.35;;;;;;;4.80;84.12;100753.84;6269793;22;20520;-75
2024/01/23 01:21:18;;;;;;;9.38;2.22;;;;;;;4.70;85.58;100758.94;6269436;22;20056;-75
2024/01/23 01:23:45;;;;;;;12.73;2.75;;;;;;;4.78;85.10;100757.59;6267588;22;20469;-73
2024/01/23 01:26:11;;;;;;;13.73;2.45;;;;;;;4.66;85.83;100760.06;6268033;22;20549;-75
2024/01/23 01:28:38;;;;;;;12.60;2.20;;;;;;;4.44;86.47;100759.72;6267230;22;20020;-75
2024/01/23 01:31:05;;;;;;;13.05;2.58;;;;;;;4.47;86.88;100742.53;6266352;22;20035;-73
2024/01/23 01:33:31;;;;;;;14.02;3.05;;;;;;;4.56;86.21;100750.88;6263903;22;20016;-73
2024/01/23 01:35:58;;;;;;;14.60;2.55;;;;;;;4.45;86.48;100750.69;6267870;22;20023;-75
2024/01/23 01:38:26;;;;;;;13.57;2.22;;;;;;;4.35;87.27;100749.53;6268638;22;20020;-73
2024/01/23 01:40:54;;;;;;;8.65;1.83;;;;;;;4.35;87.34;100754.91;6241983;22;20074;-75
2024/01/23 01:43:25;;;;;;;13.95;2.00;;;;;;;4.47;86.71;100761.31;6267478;22;20047;-75
2024/01/23 01:46:12;;;;;;;12.85;2.38;;;;;;;4.48;86.41;100766.59;6267076;22;20024;-74
2024/01/23 01:48:40;;;;;;;12.98;2.30;;;;;;;4.53;86.35;100777.94;6242705;22;20024;-75
2024/01/23 01:51:07;;;;;;;11.45;1.80;;;;;;;4.49;86.46;100770.16;6267022;22;20023;-75
2024/01/23 01:53:34;;;;;;;6.93;1.70;;;;;;;4.31;86.21;100764.13;6265587;22;20317;-75
2024/01/23 01:56:03;;;;;;;4.93;1.75;;;;;;;4.26;86.89;100769.75;6268880;22;20130;-75
2024/01/23 01:58:31;;;;;;;16.30;2.70;;;;;;;4.22;87.29;100764.69;6269696;22;20016;-76
2024/01/23 02:01:00;;;;;;;11.13;1.95;;;;;;;4.28;87.10;100766.97;6266531;22;20031;-74
2024/01/23 02:03:27;;;;;;;13.02;1.95;;;;;;;4.22;87.18;100764.69;6267529;22;20338;-74
2024/01/23 02:09:41;;;;;;;15.75;2.75;;;;;;;4.04;87.96;100777.41;6267365;22;20522;-75
2024/01/23 02:12:08;;;;;;;15.32;3.05;;;;;;;3.77;88.51;100780.78;6240862;22;20111;-76
2024/01/23 02:14:35;;;;;;;14.15;2.45;;;;;;;3.73;89.62;100778.34;6266358;22;20020;-75
2024/01/23 02:17:01;;;;;;;12.02;2.35;;;;;;;3.84;88.73;100775.91;6237392;22;20311;-74
2024/01/23 02:19:28;;;;;;;11.27;2.00;;;;;;;3.72;88.95;100777.47;6266798;22;20084;-74
2024/01/23 02:21:55;;;;;;;16.58;2.95;;;;;;;3.67;88.87;100763.50;6266256;22;20016;-73
2024/01/23 02:24:21;;;;;;;14.90;2.47;;;;;;;3.76;88.29;100764.78;6266088;22;20064;-75
2024/01/23 02:26:48;;;;;;;14.88;2.40;;;;;;;3.90;88.17;100770.16;6267317;22;20020;-76
2024/01/23 02:29:16;;;;;;;16.15;2.40;;;;;;;3.99;87.15;100768.75;6265099;22;20454;-74
2024/01/23 02:31:42;;;;;;;20.55;2.72;;;;;;;3.86;87.90;100771.31;6265688;22;20020;-74
2024/01/23 02:34:09;;;;;;;9.98;2.28;;;;;;;3.70;88.78;100768.66;6265534;22;20440;-74
2024/01/23 02:36:39;;;;;;;13.55;2.65;;;;;;;3.59;88.83;100771.13;6264394;22;20015;-74
2024/01/23 02:39:07;;;;;;;11.73;2.00;;;;;;;3.77;88.08;100769.19;6263484;22;20020;-74
2024/01/23 02:41:34;;;;;;;13.82;3.03;;;;;;;3.70;88.42;100778.53;6260992;22;20329;-74
2024/01/23 02:44:00;;;;;;;12.68;2.72;;;;;;;3.97;86.78;100771.53;6265012;22;20019;-74
2024/01/23 02:46:27;;;;;;;9.27;2.50;;;;;;;3.93;86.97;100778.03;6265716;22;20061;-76
2024/01/23 02:48:53;;;;;;;11.18;1.83;;;;;;;3.97;86.13;100782.25;6262197;22;20031;-74
2024/01/23 02:51:20;;;;;;;12.95;2.28;;;;;;;3.93;86.61;100774.47;6261713;22;20043;-74
2024/01/23 02:53:47;;;;;;;15.05;2.53;;;;;;;3.74;87.27;100774.69;6263246;22;20020;-74
2024/01/23 02:56:14;;;;;;;13.90;2.28;;;;;;;3.86;87.50;100761.44;6261329;22;20090;-74
2024/01/23 02:58:41;;;;;;;14.18;1.98;;;;;;;3.89;86.51;100773.81;6262335;22;20118;-74
2024/01/23 03:01:08;;;;;;;16.73;2.30;;;;;;;4.00;86.48;100774.03;6262409;22;20113;-74
2024/01/23 03:03:35;;;;;;;15.75;2.10;;;;;;;4.02;86.49;100773.91;6262756;22;20036;-74
2024/01/23 03:06:01;;;;;;;10.05;2.25;;;;;;;3.96;87.10;100788.59;6261906;22;20458;-74
2024/01/23 03:08:28;;;;;;;9.48;2.00;;;;;;;4.02;86.23;100790.03;6264387;22;20019;-75
2024/01/23 03:10:55;;;;;;;18.27;2.42;;;;;;;4.02;86.53;100800.75;6263400;22;20039;-74
2024/01/23 03:13:21;;;;;;;14.55;2.08;;;;;;;4.19;85.36;100791.69;6262266;22;20027;-76
2024/01/23 03:15:52;;;;;;;10.13;2.60;;;;;;;4.12;85.70;100792.09;6263489;22;20130;-76
2024/01/23 03:18:19;;;;;;;10.68;2.28;;;;;;;4.21;84.96;100781.72;6265075;22;20085;-75
2024/01/23 03:20:47;;;;;;;15.30;2.63;;;;;;;4.21;84.87;100795.16;6265418;22;20367;-74
2024/01/23 03:23:14;;;;;;;10.75;1.88;;;;;;;4.24;84.27;100794.97;6265531;22;20046;-75
2024/01/23 03:25:41;;;;;;;10.15;1.90;;;;;;;4.28;83.94;100792.00;6264283;22;20103;-74
2024/01/23 03:28:08;;;;;;;10.85;1.65;;;;;;;4.29;83.86;100795.53;6263490;22;20020;-74
2024/01/23 03:30:34;;;;;;;13.63;2.05;;;;;;;4.18;84.32;100798.88;6265214;22;20027;-74
2024/01/23 03:33:01;;;;;;;8.40;2.08;;;;;;;4.22;83.79;100797.75;6245335;22;20443;-69
2024/01/23 03:35:28;;;;;;;17.90;2.47;;;;;;;4.29;83.71;100804.47;6271722;22;20024;-68
2024/01/23 03:37:55;;;;;;;7.82;2.17;;;;;;;4.15;84.14;100801.78;6271412;22;20355;-67
2024/01/23 03:40:21;;;;;;;11.20;1.92;;;;;;;4.19;83.80;100803.31;6272026;22;20077;-67
2024/01/23 03:42:49;;;;;;;8.13;2.05;;;;;;;4.24;84.43;100824.50;6272456;22;20020;-67
2024/01/23 03:45:16;;;;;;;18.48;2.38;;;;;;;4.30;83.55;100830.34;6272735;22;20028;-67
2024/01/23 03:47:43;;;;;;;9.38;2.08;;;;;;;4.23;84.27;100825.47;6272781;22;20020;-67
2024/01/23 03:50:09;;;;;;;11.60;2.13;;;;;;;4.20;85.11;100831.00;6268848;22;20019;-68
2024/01/23 03:52:37;;;;;;;15.13;1.90;;;;;;;4.20;85.08;100836.38;6270334;22;20023;-68
2024/01/23 03:55:04;;;;;;;13.77;2.50;;;;;;;4.17;85.25;100836.56;6272580;22;20020;-68
2024/01/23 03:57:31;;;;;;;11.85;2.28;;;;;;;4.09;85.60;100840.56;6272437;22;20039;-68
2024/01/23 03:59:58;;;;;;;9.07;1.90;;;;;;;4.10;85.25;100841.44;6270928;22;20095;-68
2024/01/23 04:02:25;;;;;;;11.85;2.22;;;;;;;4.06;84.71;100839.91;6270368;22;20318;-68
2024/01/23 04:04:52;;;;;;;14.40;2.40;;;;;;;4.02;84.85;100836.50;6268234;22;20284;-68
2024/01/23 04:07:20;;;;;;;11.23;1.90;;;;;;;4.06;84.66;100839.91;6269653;22;20082;-68
2024/01/23 04:09:47;;;;;;;9.93;1.73;;;;;;;4.15;84.15;100844.72;6272862;22;20026;-68
2024/01/23 04:12:13;;;;;;;9.13;1.92;;;;;;;4.11;84.21;100848.53;6272197;22;20446;-67
2024/01/23 04:14:41;;;;;;;13.90;1.85;;;;;;;4.09;84.29;100845.94;6280441;22;20103;-67
2024/01/23 04:17:07;;;;;;;18.98;2.00;;;;;;;3.98;85.36;100852.91;6280541;22;20024;-67
2024/01/23 04:19:36;;;;;;;10.93;1.80;;;;;;;4.06;84.60;100862.22;6254568;22;20024;-67
2024/01/23 04:22:03;;;;;;;14.55;2.80;;;;;;;4.04;84.01;100863.28;6280485;22;20020;-67
2024/01/23 04:24:30;;;;;;;10.23;1.85;;;;;;;4.07;83.97;100861.28;6280241;22;20066;-68
2024/01/23 04:26:57;;;;;;;10.73;1.83;;;;;;;3.96;84.17;100869.09;6279062;22;20458;-67
2024/01/23 04:29:23;;;;;;;10.18;2.00;;;;;;;3.98;85.04;100879.75;6281187;22;20030;-68
2024/01/23 04:31:50;;;;;;;7.25;1.25;;;;;;;3.94;85.57;100892.47;6280499;22;20035;-67
2024/01/23 04:34:16;;;;;;;11.02;2.13;;;;;;;4.06;84.38;100886.38;6277915;22;20024;-67
2024/01/23 04:36:44;;;;;;;13.10;1.85;;;;;;;4.13;84.63;100892.28;6278026;22;20079;-70
2024/01/23 04:39:10;;;;;;;9.57;2.15;;;;;;;4.21;83.37;100899.84;6280363;22;20027;-69
2024/01/23 04:41:37;;;;;;;10.52;1.77;;;;;;;4.34;82.76;100898.19;6280869;22;20075;-68
2024/01/23 04:44:04;;;;;;;16.10;2.20;;;;;;;4.28;84.12;100904.78;6281264;22;20028;-69
2024/01/23 04:46:30;;;;;;;7.60;2.00;;;;;;;4.10;84.75;100920.13;6282530;22;20024;-70
2024/01/23 04:48:57;;;;;;;12.48;2.10;;;;;;;4.15;85.28;100928.81;6282669;22;20089;-69
2024/01/23 04:51:24;;;;;;;16.98;1.98;;;;;;;4.00;86.85;100926.13;6281096;22;20024;-69
2024/01/23 04:53:53;;;;;;;20.25;3.00;;;;;;;4.17;86.17;100934.06;6278837;22;20035;-69
2024/01/23 04:56:21;;;;;;;12.48;2.00;;;;;;;4.19;86.71;100936.66;6280207;22;20042;-68
2024/01/23 04:58:48;;;;;;;11.10;2.40;;;;;;;4.14;87.23;100928.91;6278573;22;20016;-68
2024/01/23 05:01:15;;;;;;;14.85;2.22;;;;;;;4.08;87.57;100940.84;6278541;22;20082;-68
2024/01/23 05:03:42;;;;;;;13.93;2.17;;;;;;;4.06;87.85;100947.25;6278293;22;20012;-68
2024/01/23 05:06:08;;;;;;;14.10;1.85;;;;;;;4.15;87.58;100949.41;6277610;22;20027;-67
2024/01/23 05:08:36;;;;;;;8.90;1.80;;;;;;;4.07;88.05;100955.22;6277888;22;20026;-68
2024/01/23 05:11:03;;;;;;;11.57;2.00;;;;;;;3.96;88.95;100968.41;6277475;22;20029;-68
2024/01/23 05:13:30;;;;;;;13.48;1.90;;;;;;;4.00;87.76;100964.56;6276272;22;20023;-68
2024/01/23 05:15:56;;;;;;;12.43;2.10;;;;;;;4.08;87.50;100978.41;6276937;22;20019;-68
2024/01/23 05:18:23;;;;;;;15.20;2.40;;;;;;;4.01;87.38;100982.41;6275093;22;20016;-67
2024/01/23 05:20:50;;;;;;;12.63;1.98;;;;;;;3.94;87.89;100981.03;6275507;22;20115;-67
2024/01/23 05:23:16;;;;;;;13.00;1.70;;;;;;;3.84;87.98;100985.19;6275013;22;20484;-67
2024/01/23 05:25:43;;;;;;;13.35;2.28;;;;;;;3.75;88.73;100994.63;6277840;22;20023;-67
2024/01/23 05:28:09;;;;;;;8.98;1.40;;;;;;;3.73;88.89;100987.59;6277990;22;20092;-68
2024/01/23 05:30:36;;;;;;;8.40;2.10;;;;;;;3.53;89.40;100997.59;6273371;22;20073;-68
2024/01/23 05:33:03;;;;;;;11.27;1.88;;;;;;;3.68;88.33;100990.53;6250859;22;20109;-68
2024/01/23 05:35:30;;;;;;;5.90;1.38;;;;;;;3.69;87.82;100994.09;6277484;22;20027;-68
2024/01/23 05:37:57;;;;;;;10.98;1.70;;;;;;;3.64;88.24;101015.78;6279167;22;20027;-68
2024/01/23 05:40:23;;;;;;;14.80;1.80;;;;;;;3.48;88.96;101014.91;6277799;22;20030;-67
2024/01/23 05:42:50;;;;;;;10.95;1.90;;;;;;;3.52;88.93;101014.66;6278183;22;20050;-68
2024/01/23 05:45:16;;;;;;;14.73;2.28;;;;;;;3.47;88.84;101023.91;6278747;22;20423;-68
2024/01/23 05:47:43;;;;;;;12.60;1.65;;;;;;;3.63;88.26;101026.59;6278285;22;20019;-69
2024/01/23 05:50:09;;;;;;;15.68;2.22;;;;;;;3.72;86.94;101026.09;6279509;22;20023;-68
2024/01/23 05:52:36;;;;;;;18.27;2.17;;;;;;;3.76;86.29;101033.06;6254693;22;20524;-68
2024/01/23 05:55:03;;;;;;;9.90;1.83;;;;;;;3.72;86.90;101039.50;6279325;22;20430;-70
2024/01/23 05:57:30;;;;;;;15.75;1.95;;;;;;;3.66;87.25;101034.50;6281845;22;20042;-69
2024/01/23 05:59:57;;;;;;;12.30;1.92;;;;;;;3.63;87.52;101035.50;6282518;22;20038;-69
2024/01/23 06:02:24;;;;;;;13.80;2.00;;;;;;;3.56;88.50;101052.91;6281190;22;20026;-69
2024/01/23 06:04:50;;;;;;;23.05;2.53;;;;;;;3.60;87.34;101046.41;6280266;22;20046;-69
2024/01/23 06:07:18;;;;;;;16.65;2.15;;;;;;;3.62;87.71;101055.25;6280876;22;20024;-68
2024/01/23 06:09:45;;;;;;;16.65;2.38;;;;;;;3.53;87.69;101058.41;6279357;22;20016;-68
2024/01/23 06:12:12;;;;;;;12.88;2.08;;;;;;;3.57;88.41;101050.16;6280868;22;20070;-67
2024/01/23 06:14:38;;;;;;;18.80;2.85;;;;;;;3.69;87.65;101056.66;6281366;22;20023;-68
2024/01/23 06:17:05;;;;;;;15.35;2.53;;;;;;;3.69;87.26;101063.84;6281532;22;20027;-68
2024/01/23 06:19:31;;;;;;;13.77;2.42;;;;;;;3.69;87.59;101062.03;6280328;22;20027;-68
2024/01/23 06:21:58;;;;;;;19.55;2.00;;;;;;;3.80;87.31;101066.78;6284635;22;20323;-68
2024/01/23 06:24:24;;;;;;;27.35;3.15;;;;;;;3.83;86.88;101077.34;6287788;22;20061;-69
2024/01/23 06:26:51;;;;;;;15.90;2.72;;;;;;;3.86;86.66;101074.53;6290116;22;20023;-68
2024/01/23 06:29:18;;;;;;;18.40;2.90;;;;;;;3.94;86.26;101083.03;6288242;22;20401;-67
2024/01/23 06:31:44;;;;;;;22.15;2.60;;;;;;;3.98;85.66;101092.63;6287351;22;20023;-71
2024/01/23 06:34:13;;;;;;;14.20;2.50;;;;;;;3.85;86.93;101099.63;6260561;22;20035;-68
2024/01/23 06:36:40;;;;;;;16.95;3.40;;;;;;;4.01;85.71;101105.88;6286054;22;20023;-68
2024/01/23 06:39:06;;;;;;;21.55;3.50;;;;;;;3.85;87.08;101110.34;6289685;22;20024;-68
2024/01/23 06:41:33;;;;;;;24.90;3.22;;;;;;;4.04;85.73;101119.13;6289455;22;20458;-68
2024/01/23 06:43:59;;;;;;;19.35;3.28;;;;;;;4.07;85.45;101108.22;6288043;22;20016;-69
2024/01/23 06:46:26;;;;;;;23.40;3.35;;;;;;;3.96;86.12;101113.31;6289118;22;20023;-68
2024/01/23 06:48:53;;;;;;;16.55;2.70;;;;;;;4.12;84.68;101114.22;6289633;22;20027;-68
2024/01/23 06:51:22;;;;;;;23.35;3.80;;;;;;;4.07;85.40;101124.34;6289524;22;20085;-68
2024/01/23 06:53:48;;;;;;;14.95;2.20;;;;;;;4.06;85.38;101116.38;6289026;22;20020;-70
2024/01/23 06:56:15;;;;;;;25.33;3.35;;;;;;;4.10;85.02;101142.06;6288952;22;20027;-69
2024/01/23 06:58:42;;;;;;;20.38;3.53;;;;;;;4.00;85.01;101136.34;6288715;22;20020;-70
2024/01/23 07:01:08;;;;;;;16.38;3.22;;;;;;;4.07;84.98;101142.25;6289698;22;20418;-68
2024/01/23 07:03:35;;;;;;;18.73;3.50;;;;;;;4.08;84.85;101155.59;6287692;22;20020;-69
2024/01/23 07:06:02;;;;;;;23.63;3.35;;;;;;;4.02;85.08;101161.28;6287919;22;20024;-69
2024/01/23 07:08:29;;;;;;;28.15;3.25;;;;;;;4.23;83.07;101158.41;6288418;22;20454;-69
2024/01/23 07:10:55;;;;;;;16.50;3.10;;;;;;;4.22;84.06;101167.41;6288176;22;20024;-68
2024/01/23 07:13:22;;;;;;;27.25;3.72;;;;;;;4.26;83.67;101166.28;6289699;22;20019;-69
2024/01/23 07:15:48;;;;;;;15.73;2.97;;;;;;;4.13;84.09;101172.31;6288176;22;20051;-69
2024/01/23 07:18:15;;;;;;;25.88;3.67;;;;;;;4.15;83.12;101165.06;6288657;22;20047;-68
2024/01/23 07:20:42;;;;;;;32.10;3.53;;;;;;;4.21;82.57;101176.38;6287464;22;20015;-69
2024/01/23 07:23:09;;;;;;;23.42;2.85;;;;;;;4.28;82.31;101185.84;6258697;22;20020;-69
2024/01/23 07:25:35;;;;;;;23.05;4.63;;;;;;;4.17;82.52;101191.81;6286493;22;20042;-69
2024/01/23 07:28:03;;;;;;;22.00;3.90;;;;;;;4.29;82.75;101196.50;6286901;22;20019;-70
2024/01/23 07:30:36;;;;;;;28.15;5.22;;;;;;;4.24;82.70;101181.63;6287963;22;20012;-69
2024/01/23 07:33:03;;;;;;;43.50;6.35;;;;;;;4.38;81.49;101181.72;6285252;22;20047;-69
2024/01/23 07:35:29;;;;;;;24.42;3.40;;;;;;;4.30;82.63;101194.69;6257115;23;20447;-68
2024/01/23 07:37:57;;;;;;;22.25;3.17;;;;;;;4.46;80.92;101187.53;6257431;23;20055;-69
2024/01/23 07:40:24;;;;;;;32.97;4.18;;;;;;;4.54;79.96;101185.28;6256664;23;20028;-68
2024/01/23 07:42:50;;;;;;;32.85;4.53;;;;;;;4.42;81.25;101177.91;6257938;23;20059;-70
2024/01/23 07:45:17;;;;;;;26.63;3.70;;;;;;;4.62;78.65;101191.09;6255997;23;20120;-70
2024/01/23 07:47:44;;;;;;;22.17;3.50;;;;;;;4.47;80.05;101172.28;6256735;23;20031;-70
2024/01/23 07:50:12;;;;;;;25.40;3.78;;;;;;;4.51;79.60;101180.09;6257185;23;20024;-69
2024/01/23 07:52:39;;;;;;;18.73;3.65;;;;;;;4.66;78.63;101186.41;6255400;23;20025;-69
2024/01/23 07:55:05;;;;;;;17.40;2.83;;;;;;;4.65;79.08;101192.75;6254986;23;20024;-69
2024/01/23 07:57:32;;;;;;;26.05;3.50;;;;;;;4.71;78.60;101201.34;6256214;23;20024;-69
2024/01/23 07:59:58;;;;;;;20.67;2.97;;;;;;;4.57;79.41;101192.28;6257678;23;20024;-69
2024/01/23 08:02:26;;;;;;;23.80;3.28;;;;;;;4.73;78.63;101193.19;6256071;23;20022;-69
2024/01/23 08:04:52;;;;;;;23.08;2.97;;;;;;;4.72;79.30;101203.06;6255579;23;20043;-70
2024/01/23 08:07:20;;;;;;;20.17;3.40;;;;;;;4.77;78.86;101212.66;6230832;23;20072;-69
2024/01/23 08:09:48;;;;;;;23.25;2.90;;;;;;;4.89;78.08;101220.94;6253927;23;20026;-70
2024/01/23 08:12:15;;;;;;;23.30;3.92;;;;;;;4.75;78.72;101209.22;6252485;23;20024;-69
2024/01/23 08:14:42;;;;;;;26.13;3.53;;;;;;;4.80;78.58;101205.31;6253586;23;20076;-69
2024/01/23 08:17:13;;;;;;;21.17;4.07;;;;;;;4.91;77.67;101194.00;6254722;23;20466;-69
2024/01/23 08:19:40;;;;;;;14.43;2.22;;;;;;;4.88;77.22;101199.53;6227692;23;20028;-69
2024/01/23 08:22:08;;;;;;;23.02;4.18;;;;;;;4.89;78.28;101201.25;6256178;23;20028;-69
2024/01/23 08:24:35;;;;;;;24.05;4.45;;;;;;;5.05;78.07;101209.31;6255659;23;20474;-69
2024/01/23 08:27:03;;;;;;;18.80;4.13;;;;;;;5.11;76.46;101209.84;6255529;23;20074;-69
2024/01/23 08:29:29;;;;;;;30.08;3.38;;;;;;;5.01;77.41;101222.09;6257719;23;20020;-68
2024/01/23 08:31:56;;;;;;;25.23;3.45;;;;;;;5.15;76.25;101232.94;6255790;23;20024;-69
2024/01/23 08:34:23;;;;;;;20.33;4.47;;;;;;;5.22;75.86;101236.97;6257233;22;20024;-68
2024/01/23 08:36:49;;;;;;;31.27;4.75;;;;;;;5.28;75.54;101241.16;6257039;23;20020;-68
2024/01/23 08:39:16;;;;;;;20.52;3.40;;;;;;;5.31;75.46;101232.03;6256186;23;20084;-68
2024/01/23 08:41:43;;;;;;;22.63;4.18;;;;;;;5.24;76.20;101245.84;6255068;23;20324;-68
2024/01/23 08:44:09;;;;;;;25.92;4.28;;;;;;;5.25;75.58;101257.47;6254941;23;20389;-68
2024/01/23 08:46:36;;;;;;;25.95;3.47;;;;;;;5.16;75.73;101258.88;6256274;23;20024;-68
2024/01/23 08:49:03;;;;;;;23.30;3.83;;;;;;;5.22;75.76;101249.56;6255305;23;20032;-68
2024/01/23 08:51:30;;;;;;;17.95;3.30;;;;;;;5.27;75.79;101259.09;6230325;23;20030;-68
2024/01/23 08:53:56;;;;;;;18.77;3.45;;;;;;;5.25;75.74;101269.09;6256374;23;20024;-69
2024/01/23 08:56:25;;;;;;;18.17;3.13;;;;;;;5.26;75.01;101264.56;6258989;23;20024;-68
2024/01/23 08:58:52;;;;;;;32.47;3.83;;;;;;;5.35;75.71;101274.81;6257826;23;20074;-68
2024/01/23 09:01:18;;;;;;;27.70;3.67;;;;;;;5.35;75.80;101274.81;6257503;23;20131;-69
2024/01/23 09:03:45;;;;;;;21.40;3.60;;;;;;;5.40;75.30;101275.41;6256010;23;20031;-68
2024/01/23 09:06:14;;;;;;;24.65;4.13;;;;;;;5.64;74.56;101275.81;6257745;23;20020;-68
2024/01/23 09:08:44;;;;;;;15.73;3.60;;;;;;;5.60;74.69;101285.00;6259665;23;20020;-68
2024/01/23 09:11:11;;;;;;;24.45;3.90;;;;;;;5.62;74.61;101280.41;6257899;23;20048;-68
2024/01/23 09:13:38;;;;;;;23.83;3.70;;;;;;;5.74;74.32;101290.44;6258014;23;20055;-68
2024/01/23 09:16:05;;;;;;;25.98;4.47;;;;;;;5.75;72.69;101294.88;6260737;23;20039;-68
2024/01/23 09:18:32;;;;;;;26.85;3.80;;;;;;;5.85;72.38;101301.44;6260140;23;20054;-70
2024/01/23 09:21:02;;;;;;;26.08;3.63;;;;;;;5.80;72.25;101300.88;6260904;23;20047;-70
2024/01/23 09:23:29;;;;;;;28.30;3.70;;;;;;;5.91;72.31;101289.44;6260315;23;20078;-69
2024/01/23 09:25:56;;;;;;;19.40;3.35;;;;;;;5.91;71.78;101304.75;6261245;23;20028;-69
2024/01/23 09:28:24;;;;;;;18.17;3.80;;;;;;;5.95;72.62;101306.28;6261087;23;20020;-69
2024/01/23 09:30:50;;;;;;;21.58;3.95;;;;;;;6.01;71.69;101316.69;6260344;23;20039;-69
2024/01/23 09:33:17;;;;;;;30.63;4.13;;;;;;;6.04;71.86;101332.66;6260437;22;20024;-69
2024/01/23 09:35:44;;;;;;;29.92;4.45;;;;;;;5.92;72.62;101322.63;6260163;23;20032;-70
2024/01/23 09:38:10;;;;;;;28.33;3.95;;;;;;;5.91;72.60;101331.66;6259994;23;20034;-69
2024/01/23 09:40:38;;;;;;;25.77;4.10;;;;;;;5.96;71.94;101345.72;6259737;23;20020;-69
2024/01/23 09:43:05;;;;;;;25.08;4.78;;;;;;;5.93;72.28;101340.50;6230891;23;20051;-69
2024/01/23 09:45:33;;;;;;;20.45;3.72;;;;;;;6.07;72.06;101337.84;6257391;23;20081;-69
2024/01/23 09:48:01;;;;;;;30.10;5.03;;;;;;;6.05;72.39;101332.56;6258895;23;20028;-69
2024/01/23 09:50:28;;;;;;;22.40;3.50;;;;;;;6.17;71.65;101344.44;6258915;23;20455;-69
2024/01/23 09:52:58;;;;;;;21.45;4.60;;;;;;;6.19;71.77;101342.53;6255241;23;20020;-69
2024/01/23 09:55:25;;;;;;;26.75;4.50;;;;;;;6.42;71.35;101342.00;6253740;23;20454;-69
2024/01/23 09:57:52;;;;;;;25.05;3.50;;;;;;;6.49;69.85;101349.72;6252380;23;20023;-69
2024/01/23 10:00:18;;;;;;;26.45;4.07;;;;;;;6.42;70.86;101355.47;6250671;23;20024;-69
2024/01/23 10:02:47;;;;;;;23.83;3.65;;;;;;;6.43;71.08;101367.97;6253895;23;20051;-69
2024/01/23 10:05:17;;;;;;;26.85;5.50;;;;;;;6.38;71.75;101358.44;6254855;23;20478;-68
2024/01/23 10:07:44;;;;;;;28.02;3.95;;;;;;;6.35;70.98;101348.72;6227524;23;20020;-70
2024/01/23 10:10:17;;;;;;;29.05;4.57;;;;;;;6.29;70.71;101349.09;6253941;23;20091;-68
2024/01/23 10:12:47;;;;;;;28.40;6.53;;;;;;;6.28;71.23;101360.84;6253648;23;20020;-71
2024/01/23 10:15:16;;;;;;;34.65;4.70;;;;;;;6.22;71.25;101363.88;6253830;23;20020;-67
2024/01/23 10:17:46;;;;;;;20.40;3.00;;;;;;;6.19;71.61;101357.81;6227456;23;20024;-68
2024/01/23 10:20:15;;;;;;;30.58;4.13;;;;;;;6.24;71.31;101356.56;6253841;23;20024;-70
2024/01/23 10:22:47;;;;;;;27.75;4.53;;;;;;;6.24;70.87;101359.25;6254473;23;20394;-68
2024/01/23 10:25:19;;;;;;;21.30;3.22;;;;;;;6.27;70.95;101371.72;6254892;23;20108;-68
2024/01/23 10:27:53;;;;;;;18.13;4.05;;;;;;;6.41;70.58;101374.41;6256387;23;20020;-69
2024/01/23 10:30:20;;;;;;;24.33;4.00;;;;;;;6.58;70.89;101379.66;6254026;23;20035;-68
2024/01/23 10:32:47;;;;;;;23.52;3.60;;;;;;;6.69;69.00;101384.38;6254417;23;20027;-68
2024/01/23 10:35:14;;;;;;;23.48;3.47;;;;;;;6.73;69.39;101380.56;6284529;22;20027;-68
2024/01/23 10:37:44;;;;;;;24.08;3.80;;;;;;;7.09;68.50;101387.28;6284074;22;20023;-68
2024/01/23 10:40:13;;;;;;;25.23;5.00;;;;;;;7.29;67.39;101384.22;6257344;22;20050;-68
2024/01/23 10:42:40;;;;;;;30.60;3.88;;;;;;;7.30;66.43;101396.75;6283676;22;20034;-68
2024/01/23 10:45:16;;;;;;;20.38;3.92;;;;;;;7.42;67.86;101398.69;6284309;22;20054;-70
2024/01/23 10:47:45;;;;;;;18.92;4.03;;;;;;;7.42;67.90;101401.38;6256159;22;20085;-69
2024/01/23 10:50:12;;;;;;;21.50;3.83;;;;;;;7.29;67.57;101405.81;6284654;22;20077;-69
2024/01/23 10:52:39;;;;;;;22.90;4.05;;;;;;;7.12;68.04;101408.69;6285534;22;20088;-68
2024/01/23 10:55:07;;;;;;;23.13;4.30;;;;;;;7.09;68.21;101403.47;6284476;22;20027;-69
2024/01/23 10:57:36;;;;;;;22.80;3.85;;;;;;;7.02;68.22;101397.63;6257554;22;20023;-69
2024/01/23 11:00:04;;;;;;;26.52;4.07;;;;;;;7.00;68.07;101410.31;6282590;22;20027;-69
2024/01/23 11:02:43;;;;;;;19.88;3.25;;;;;;;6.98;68.28;101410.41;6282775;22;20023;-70
2024/01/23 11:05:10;;;;;;;26.20;3.88;;;;;;;7.15;67.30;101424.69;6282634;22;20105;-69
2024/01/23 11:07:39;;;;;;;25.00;4.32;;;;;;;7.25;67.64;101425.84;6280738;22;20020;-69
2024/01/23 11:10:24;;;;;;;25.33;4.28;;;;;;;7.07;68.56;101411.66;6281652;22;20028;-69
2024/01/23 11:13:08;;;;;;;25.13;4.07;;;;;;;7.03;68.08;101433.56;6279841;22;20081;-68
2024/01/23 11:15:34;;;;;;;28.20;4.43;;;;;;;7.00;68.84;101416.59;6281520;22;20023;-69
2024/01/23 11:18:28;;;;;;;29.77;4.13;;;;;;;6.94;68.09;101416.97;6284224;22;20024;-71
2024/01/23 11:21:08;;;;;;;30.77;4.82;;;;;;;6.95;68.99;101434.88;6282355;22;20023;-68
2024/01/23 11:23:39;;;;;;;30.55;4.95;;;;;;;7.16;67.67;101427.28;6282489;22;20045;-68
2024/01/23 11:26:22;;;;;;;27.05;4.60;;;;;;;7.41;67.34;101432.03;6258105;22;20028;-69
2024/01/23 11:28:53;;;;;;;26.13;3.97;;;;;;;7.55;66.99;101429.31;6258614;22;20016;-70
2024/01/23 11:31:25;;;;;;;26.67;4.47;;;;;;;7.70;67.17;101432.88;6284818;22;20035;-68